Time;durP1;ratioP1;P1;durP2;ratioP2;P2;SDS_P1;SDS_P2;PMS_P1;PMS_P2;Temp;Humidity;BMP_temperature;BMP_pressure;BME280_temperature;BME280_humidity;BME280_pressure;Samples;Min_cycle;Max_cycle;Signal;HPM_P1;HPM_P2
2022/03/04 00:00:16;;;;;;;8.93;4.53;;;29.20;78.60;;;;;;5085314;28;20378;-37
2022/03/04 00:02:43;;;;;;;8.38;4.57;;;29.20;78.60;;;;;;5085568;28;20268;-38
2022/03/04 00:05:10;;;;;;;15.13;4.35;;;29.20;78.60;;;;;;5085981;28;20035;-35
2022/03/04 00:07:36;;;;;;;9.85;4.47;;;29.20;78.70;;;;;;5085381;28;20039;-38
2022/03/04 00:10:03;;;;;;;13.30;4.30;;;29.20;78.70;;;;;;5085494;28;20020;-40
2022/03/04 00:12:30;;;;;;;7.85;4.15;;;29.20;78.60;;;;;;5083566;28;20028;-38
2022/03/04 00:14:57;;;;;;;12.38;4.63;;;29.20;78.80;;;;;;5083970;28;20081;-45
2022/03/04 00:17:23;;;;;;;22.95;11.20;;;29.10;78.60;;;;;;5085595;28;20225;-42
2022/03/04 00:19:50;;;;;;;21.23;9.10;;;29.10;78.40;;;;;;5085491;28;20024;-44
2022/03/04 00:22:16;;;;;;;14.35;5.40;;;29.10;78.70;;;;;;5085190;28;20208;-46
2022/03/04 00:24:43;;;;;;;11.25;5.47;;;29.10;78.70;;;;;;5085350;28;20040;-46
2022/03/04 00:27:12;;;;;;;8.90;5.57;;;29.10;78.60;;;;;;5083047;28;20328;-43
2022/03/04 00:29:39;;;;;;;8.85;4.50;;;29.10;78.30;;;;;;5085090;28;20029;-42
2022/03/04 00:32:06;;;;;;;7.90;4.65;;;29.10;77.40;;;;;;5085140;28;20016;-44
2022/03/04 00:34:32;;;;;;;8.40;4.65;;;29.10;76.90;;;;;;5085321;28;20028;-43
2022/03/04 00:36:59;;;;;;;10.43;4.18;;;29.10;76.90;;;;;;5085054;28;20029;-41
2022/03/04 00:39:25;;;;;;;9.23;4.05;;;29.00;76.70;;;;;;5084887;28;20182;-41
2022/03/04 00:41:52;;;;;;;9.15;4.70;;;29.00;76.10;;;;;;5084971;28;20024;-44
2022/03/04 00:44:19;;;;;;;12.20;6.00;;;29.00;76.20;;;;;;5084878;28;20037;-44
2022/03/04 00:46:45;;;;;;;9.35;4.68;;;29.00;76.10;;;;;;5084615;28;20036;-41
2022/03/04 00:49:12;;;;;;;7.20;3.78;;;29.00;75.90;;;;;;5084807;28;20358;-40
2022/03/04 00:51:39;;;;;;;6.70;3.80;;;29.00;75.20;;;;;;5084806;28;20071;-36
2022/03/04 00:54:05;;;;;;;10.18;4.50;;;28.90;75.30;;;;;;5084493;28;20079;-35
2022/03/04 00:56:33;;;;;;;6.45;3.70;;;28.90;75.50;;;;;;5085185;28;20028;-34
2022/03/04 00:58:59;;;;;;;9.57;4.25;;;28.90;75.70;;;;;;5084621;28;20103;-38
2022/03/04 01:01:26;;;;;;;9.60;4.28;;;28.90;76.00;;;;;;5084823;28;20028;-36
2022/03/04 01:03:54;;;;;;;7.50;4.38;;;28.90;76.70;;;;;;5084486;28;20025;-36
2022/03/04 01:06:21;;;;;;;11.20;4.18;;;28.90;76.30;;;;;;5084697;28;20142;-38
2022/03/04 01:08:47;;;;;;;7.85;4.20;;;28.90;76.50;;;;;;5084332;28;20039;-37
2022/03/04 01:11:14;;;;;;;8.73;4.20;;;28.80;76.80;;;;;;5084898;28;20020;-35
2022/03/04 01:13:41;;;;;;;9.05;4.20;;;28.80;77.20;;;;;;5084392;28;20336;-37
2022/03/04 01:16:07;;;;;;;10.10;3.83;;;28.90;77.10;;;;;;5084568;28;20021;-37
2022/03/04 01:18:34;;;;;;;7.38;4.00;;;28.90;77.00;;;;;;5084275;28;20103;-36
2022/03/04 01:21:01;;;;;;;6.22;3.58;;;28.80;76.50;;;;;;5084622;28;20108;-35
2022/03/04 01:23:27;;;;;;;5.78;3.00;;;28.80;75.90;;;;;;5084042;28;20243;-37
2022/03/04 01:25:55;;;;;;;9.10;3.60;;;28.90;75.60;;;;;;5084196;28;20087;-40
2022/03/04 01:28:22;;;;;;;6.18;3.40;;;28.90;75.30;;;;;;5085016;28;20032;-35
2022/03/04 01:30:49;;;;;;;4.97;3.22;;;28.80;75.00;;;;;;5084376;28;20087;-35
2022/03/04 01:33:16;;;;;;;10.10;3.45;;;28.80;75.00;;;;;;5084117;28;20087;-43
2022/03/04 01:35:43;;;;;;;8.85;3.47;;;28.90;75.10;;;;;;5084285;28;20208;-40
2022/03/04 01:38:09;;;;;;;6.18;3.53;;;28.80;74.80;;;;;;5083863;28;20021;-40
2022/03/04 01:40:37;;;;;;;11.48;4.90;;;28.90;75.30;;;;;;5084434;28;20021;-41
2022/03/04 01:43:04;;;;;;;11.65;5.30;;;28.80;75.10;;;;;;5083984;28;20224;-40
2022/03/04 01:45:31;;;;;;;12.25;4.32;;;28.80;75.10;;;;;;5083971;28;20031;-43
2022/03/04 01:47:58;;;;;;;14.68;4.22;;;28.80;75.70;;;;;;5083818;28;20317;-44
2022/03/04 01:50:25;;;;;;;8.95;5.05;;;28.70;75.30;;;;;;5083993;28;20036;-41
2022/03/04 01:52:52;;;;;;;10.35;5.72;;;28.70;75.30;;;;;;5083685;28;20055;-41
2022/03/04 01:55:19;;;;;;;8.55;5.47;;;28.70;75.10;;;;;;5084140;28;20025;-43
2022/03/04 01:57:46;;;;;;;12.18;5.70;;;28.70;74.80;;;;;;5083796;28;20325;-43
2022/03/04 02:00:14;;;;;;;13.90;4.65;;;28.70;74.50;;;;;;5083685;28;20044;-43
2022/03/04 02:02:42;;;;;;;14.15;6.03;;;28.70;74.70;;;;;;5083826;28;20103;-41
2022/03/04 02:05:16;;;;;;;17.27;5.65;;;28.70;74.90;;;;;;5083929;28;20103;-45
2022/03/04 02:07:43;;;;;;;8.27;4.63;;;28.60;75.30;;;;;;5083456;28;20080;-40
2022/03/04 02:10:10;;;;;;;11.05;5.10;;;28.60;75.50;;;;;;5083827;28;20114;-36
2022/03/04 02:12:37;;;;;;;9.23;4.50;;;28.70;76.00;;;;;;5083632;28;20083;-35
2022/03/04 02:15:06;;;;;;;10.55;4.88;;;28.70;75.90;;;;;;5083661;28;20232;-39
2022/03/04 02:17:33;;;;;;;9.73;4.32;;;28.70;76.00;;;;;;5083623;28;20099;-35
2022/03/04 02:20:03;;;;;;;9.73;4.70;;;28.70;76.00;;;;;;5083732;28;20078;-35
2022/03/04 02:22:33;;;;;;;8.10;4.38;;;28.60;75.80;;;;;;5083490;28;20020;-38
2022/03/04 02:25:00;;;;;;;7.13;4.00;;;28.70;76.10;;;;;;5083539;28;20064;-40
2022/03/04 02:27:27;;;;;;;10.75;4.18;;;28.70;75.90;;;;;;5083387;28;20017;-37
2022/03/04 02:29:54;;;;;;;9.45;3.88;;;28.70;76.30;;;;;;5083473;28;20025;-35
2022/03/04 02:32:20;;;;;;;7.63;3.65;;;28.70;76.10;;;;;;5083474;28;20041;-36
2022/03/04 02:34:47;;;;;;;11.52;3.60;;;28.70;75.30;;;;;;5082452;28;20023;-36
2022/03/04 02:37:15;;;;;;;10.23;3.70;;;28.70;75.30;;;;;;5086701;28;20016;-37
2022/03/04 02:39:42;;;;;;;8.25;3.70;;;28.70;75.20;;;;;;5087374;28;20309;-36
2022/03/04 02:42:08;;;;;;;8.68;3.15;;;28.70;75.50;;;;;;5087263;28;20023;-36
2022/03/04 02:44:36;;;;;;;4.78;3.40;;;28.70;76.00;;;;;;5087155;28;20050;-37
2022/03/04 02:47:03;;;;;;;6.50;3.38;;;28.70;75.30;;;;;;5087106;28;20028;-35
2022/03/04 02:49:30;;;;;;;7.65;3.17;;;28.70;75.80;;;;;;5087258;28;20024;-36
2022/03/04 02:51:57;;;;;;;4.72;3.10;;;28.70;75.50;;;;;;5086983;28;20013;-44
2022/03/04 02:54:24;;;;;;;9.93;3.40;;;28.70;75.20;;;;;;5087022;28;20112;-43
2022/03/04 02:56:51;;;;;;;7.22;3.25;;;28.70;75.40;;;;;;5086978;28;20061;-46
2022/03/04 02:59:17;;;;;;;7.25;3.15;;;28.70;75.30;;;;;;5086798;28;20239;-35
2022/03/04 03:01:44;;;;;;;4.88;2.90;;;28.70;75.30;;;;;;5086939;28;20071;-37
2022/03/04 03:04:10;;;;;;;5.20;3.30;;;28.70;74.90;;;;;;5086757;28;20024;-42
2022/03/04 03:06:37;;;;;;;10.45;3.88;;;28.70;74.50;;;;;;5086664;28;20363;-36
2022/03/04 03:09:04;;;;;;;8.27;5.00;;;28.70;74.80;;;;;;5086611;28;20028;-36
2022/03/04 03:11:30;;;;;;;5.88;3.90;;;28.70;74.70;;;;;;5087235;28;20026;-37
2022/03/04 03:13:57;;;;;;;15.70;3.60;;;28.70;74.50;;;;;;5086594;28;20028;-40
2022/03/04 03:16:23;;;;;;;4.93;3.20;;;28.70;74.30;;;;;;5087182;28;20052;-36
2022/03/04 03:18:50;;;;;;;10.38;3.53;;;28.70;74.40;;;;;;5086862;28;20039;-40
2022/03/04 03:21:17;;;;;;;6.75;3.15;;;28.70;74.50;;;;;;5087001;28;20024;-42
2022/03/04 03:23:45;;;;;;;5.30;3.50;;;28.70;74.50;;;;;;5086868;28;20039;-39
2022/03/04 03:26:11;;;;;;;8.00;3.72;;;28.70;74.70;;;;;;5086488;28;20052;-38
2022/03/04 03:28:38;;;;;;;6.00;3.60;;;28.70;74.50;;;;;;5086472;28;20024;-37
2022/03/04 03:31:04;;;;;;;6.43;3.63;;;28.70;74.60;;;;;;5086793;28;20040;-40
2022/03/04 03:33:31;;;;;;;6.53;3.30;;;28.70;74.50;;;;;;5085275;28;20034;-44
2022/03/04 03:35:58;;;;;;;8.70;2.95;;;28.70;74.50;;;;;;5085084;28;20035;-40
2022/03/04 03:38:25;;;;;;;7.47;3.20;;;28.70;74.50;;;;;;5086187;28;20335;-41
2022/03/04 03:40:51;;;;;;;5.40;3.28;;;28.70;74.70;;;;;;5086589;28;20028;-41
2022/03/04 03:43:18;;;;;;;7.43;3.30;;;28.70;74.60;;;;;;5086110;28;20096;-42
2022/03/04 03:45:44;;;;;;;7.93;3.13;;;28.60;74.50;;;;;;5086651;28;20036;-39
2022/03/04 03:48:11;;;;;;;5.22;3.10;;;28.60;74.80;;;;;;5084758;28;20033;-44
2022/03/04 03:50:38;;;;;;;9.38;3.08;;;28.60;74.90;;;;;;5086360;28;20020;-43
2022/03/04 03:53:06;;;;;;;5.15;3.03;;;28.60;75.20;;;;;;5085944;28;20191;-41
2022/03/04 03:55:32;;;;;;;5.05;2.90;;;28.60;75.00;;;;;;5086142;28;20083;-44
2022/03/04 03:57:59;;;;;;;8.15;3.10;;;28.60;75.00;;;;;;5086124;28;20016;-41
2022/03/04 04:00:26;;;;;;;7.05;2.67;;;28.60;75.00;;;;;;5085988;28;20368;-44
2022/03/04 04:02:53;;;;;;;6.55;3.10;;;28.60;75.40;;;;;;5085792;28;20074;-41
2022/03/04 04:05:20;;;;;;;6.35;3.88;;;28.50;75.40;;;;;;5085959;28;20036;-43
2022/03/04 04:07:46;;;;;;;8.23;3.38;;;28.60;75.60;;;;;;5085322;28;20100;-42
2022/03/04 04:10:13;;;;;;;7.30;3.38;;;28.60;75.50;;;;;;5085732;28;20197;-41
2022/03/04 04:12:40;;;;;;;14.43;11.20;;;28.50;75.30;;;;;;5085619;28;20096;-41
2022/03/04 04:15:07;;;;;;;12.10;9.20;;;28.50;75.40;;;;;;5085501;28;20017;-41
2022/03/04 04:17:33;;;;;;;9.90;8.40;;;28.50;75.40;;;;;;5085518;28;20087;-42
2022/03/04 04:20:00;;;;;;;8.82;6.65;;;28.50;75.20;;;;;;5085572;28;20219;-40
2022/03/04 04:22:26;;;;;;;9.32;6.82;;;28.50;75.20;;;;;;5084222;28;20039;-41
2022/03/04 04:24:53;;;;;;;9.73;5.25;;;28.50;74.90;;;;;;5085574;28;20036;-40
2022/03/04 04:27:20;;;;;;;6.72;4.60;;;28.50;74.60;;;;;;5085154;28;20103;-41
2022/03/04 04:29:46;;;;;;;7.47;4.68;;;28.50;74.40;;;;;;5084023;28;20025;-43
2022/03/04 04:32:13;;;;;;;7.18;5.03;;;28.50;74.50;;;;;;5085212;28;20020;-42
2022/03/04 04:34:39;;;;;;;8.93;4.75;;;28.50;74.60;;;;;;5085228;28;20016;-42
2022/03/04 04:37:06;;;;;;;6.57;4.10;;;28.50;74.30;;;;;;5084992;28;20039;-43
2022/03/04 04:39:32;;;;;;;5.97;4.18;;;28.50;74.80;;;;;;5085153;28;20300;-45
2022/03/04 04:41:59;;;;;;;6.43;4.18;;;28.40;74.70;;;;;;5085062;28;20216;-40
2022/03/04 04:44:25;;;;;;;6.78;3.85;;;28.40;74.40;;;;;;5084802;28;20032;-41
2022/03/04 04:46:52;;;;;;;6.05;3.30;;;28.40;74.30;;;;;;5084978;28;20031;-41
2022/03/04 04:49:19;;;;;;;5.70;3.72;;;28.40;74.80;;;;;;5084872;28;20036;-45
2022/03/04 04:51:45;;;;;;;14.30;11.73;;;28.40;75.00;;;;;;5084713;28;20027;-44
2022/03/04 04:54:12;;;;;;;8.32;4.68;;;28.40;74.90;;;;;;5084835;28;20035;-42
2022/03/04 04:56:38;;;;;;;7.55;4.40;;;28.30;74.40;;;;;;5084828;28;20224;-40
2022/03/04 04:59:05;;;;;;;4.97;3.28;;;28.20;74.20;;;;;;5084302;28;20017;-43
2022/03/04 05:01:32;;;;;;;4.38;3.08;;;28.10;72.40;;;;;;5085071;28;20044;-40
2022/03/04 05:03:58;;;;;;;8.43;3.63;;;28.10;72.70;;;;;;5084595;28;20299;-43
2022/03/04 05:06:25;;;;;;;5.97;3.15;;;28.10;72.80;;;;;;5084990;28;20054;-40
2022/03/04 05:08:52;;;;;;;8.13;3.50;;;28.10;72.80;;;;;;5084735;28;20103;-42
2022/03/04 05:11:18;;;;;;;8.65;3.20;;;28.00;71.90;;;;;;5084972;28;20020;-40
2022/03/04 05:13:45;;;;;;;5.22;3.45;;;28.00;72.50;;;;;;5084463;28;20082;-41
2022/03/04 05:16:13;;;;;;;6.68;3.03;;;28.00;73.00;;;;;;5084693;28;20020;-47
2022/03/04 05:18:39;;;;;;;9.38;3.15;;;28.00;73.10;;;;;;5084389;28;20051;-43
2022/03/04 05:21:06;;;;;;;7.00;3.22;;;28.00;73.20;;;;;;5084713;28;20219;-41
2022/03/04 05:26:17;;;;;;;7.25;3.00;;;28.10;72.90;;;;;;5084220;28;20267;-40
2022/03/04 05:28:44;;;;;;;3.15;2.75;;;28.10;73.10;;;;;;5084131;28;20066;-43
2022/03/04 05:31:10;;;;;;;7.72;2.80;;;28.10;73.50;;;;;;5084545;28;20028;-40
2022/03/04 05:33:37;;;;;;;6.88;3.08;;;28.10;73.50;;;;;;5084094;28;20012;-44
2022/03/04 05:36:03;;;;;;;5.90;3.10;;;28.10;73.50;;;;;;5084330;28;20071;-47
2022/03/04 05:38:30;;;;;;;6.32;3.28;;;28.10;73.70;;;;;;5084164;28;20012;-42
2022/03/04 05:40:57;;;;;;;5.25;2.70;;;28.10;73.90;;;;;;5084482;28;20040;-41
2022/03/04 05:43:23;;;;;;;8.27;3.15;;;28.10;74.20;;;;;;5083852;28;20228;-46
2022/03/04 05:45:51;;;;;;;7.00;3.70;;;28.10;74.90;;;;;;5084591;28;20088;-45
2022/03/04 05:48:18;;;;;;;7.53;3.83;;;28.10;74.60;;;;;;5083869;28;20205;-44
2022/03/04 05:50:44;;;;;;;7.78;3.63;;;28.10;74.90;;;;;;5084083;28;20043;-40
2022/03/04 05:53:11;;;;;;;7.15;3.90;;;28.10;75.00;;;;;;5083920;28;20251;-40
2022/03/04 05:55:38;;;;;;;4.45;3.83;;;28.10;75.30;;;;;;5084128;28;20059;-39
2022/03/04 05:58:05;;;;;;;5.03;3.88;;;28.10;75.50;;;;;;5083676;28;20024;-44
2022/03/04 06:00:32;;;;;;;8.60;4.03;;;28.10;75.80;;;;;;5084170;28;20103;-52
2022/03/04 06:02:59;;;;;;;8.30;4.30;;;28.10;76.00;;;;;;5083845;28;20332;-41
2022/03/04 06:05:26;;;;;;;7.70;4.32;;;28.10;76.30;;;;;;5083820;28;20278;-47
2022/03/04 06:07:52;;;;;;;8.50;4.53;;;28.10;76.50;;;;;;5083925;28;20039;-42
2022/03/04 06:10:19;;;;;;;7.75;4.30;;;28.10;76.80;;;;;;5084304;28;20119;-45
2022/03/04 06:12:45;;;;;;;9.65;4.38;;;28.10;77.10;;;;;;5087933;28;20044;-45
2022/03/04 06:15:12;;;;;;;10.10;4.90;;;28.10;77.10;;;;;;5088022;28;20095;-41
2022/03/04 06:17:44;;;;;;;8.88;4.82;;;28.10;77.30;;;;;;5087805;28;20035;-44
2022/03/04 06:20:11;;;;;;;;;;;28.10;77.50;;;;;;5088241;28;20280;-44
2022/03/04 06:22:37;;;;;;;9.63;5.30;;;28.10;77.80;;;;;;5087926;28;19904;-43
2022/03/04 06:25:04;;;;;;;7.75;4.93;;;28.10;77.70;;;;;;5087646;28;20032;-41
2022/03/04 06:27:31;;;;;;;15.88;5.30;;;28.00;77.90;;;;;;5087381;28;20024;-40
2022/03/04 06:29:57;;;;;;;9.27;5.22;;;28.10;77.80;;;;;;5087721;28;20072;-38
2022/03/04 06:32:24;;;;;;;7.50;5.15;;;28.00;77.70;;;;;;5087736;28;20029;-41
2022/03/04 06:34:50;;;;;;;6.90;5.00;;;28.00;77.70;;;;;;5087655;28;20027;-38
2022/03/04 06:37:17;;;;;;;10.05;5.07;;;28.00;77.70;;;;;;5087486;28;20400;-42
2022/03/04 06:39:44;;;;;;;8.77;5.10;;;28.00;77.80;;;;;;5087561;28;20088;-41
2022/03/04 06:42:10;;;;;;;9.77;5.20;;;28.00;77.90;;;;;;5087335;28;20112;-37
2022/03/04 06:44:37;;;;;;;10.27;5.43;;;28.00;77.90;;;;;;5087253;28;20331;-40
2022/03/04 06:47:04;;;;;;;8.50;4.53;;;28.00;77.90;;;;;;5087263;28;20375;-41
2022/03/04 06:49:30;;;;;;;7.70;4.60;;;27.90;77.80;;;;;;5087278;28;20036;-40
2022/03/04 06:51:57;;;;;;;8.57;4.60;;;27.90;77.60;;;;;;5086987;28;20232;-39
2022/03/04 06:54:23;;;;;;;7.03;4.57;;;27.90;77.80;;;;;;5087102;28;20036;-42
2022/03/04 06:56:50;;;;;;;10.25;4.50;;;27.80;77.60;;;;;;5087091;28;20054;-42
2022/03/04 06:59:16;;;;;;;6.82;4.20;;;27.80;77.30;;;;;;5087125;28;20043;-43
2022/03/04 07:01:43;;;;;;;4.97;4.20;;;27.80;77.10;;;;;;5086998;28;20036;-41
2022/03/04 07:04:10;;;;;;;6.57;4.15;;;27.80;77.00;;;;;;5086805;28;20016;-40
2022/03/04 07:06:36;;;;;;;8.55;4.22;;;27.70;77.20;;;;;;5086617;28;20024;-42
2022/03/04 07:09:03;;;;;;;7.20;4.32;;;27.70;77.30;;;;;;5086836;28;20036;-42
2022/03/04 07:11:30;;;;;;;7.25;4.13;;;27.70;77.10;;;;;;5087330;28;20061;-41
2022/03/04 07:13:56;;;;;;;8.20;4.25;;;27.70;77.30;;;;;;5086572;28;20032;-43
2022/03/04 07:16:23;;;;;;;7.20;3.80;;;27.70;77.40;;;;;;5087124;28;20044;-38
2022/03/04 07:18:49;;;;;;;5.95;3.97;;;27.80;77.30;;;;;;5086768;28;20056;-42
2022/03/04 07:21:16;;;;;;;8.38;4.28;;;27.80;77.00;;;;;;5086590;28;20028;-43
2022/03/04 07:23:42;;;;;;;6.78;4.18;;;27.80;76.80;;;;;;5086635;28;20036;-43
2022/03/04 07:26:10;;;;;;;8.23;4.10;;;27.80;76.80;;;;;;5086551;28;20097;-45
2022/03/04 07:28:37;;;;;;;6.78;3.60;;;27.80;76.80;;;;;;5086233;28;20032;-49
2022/03/04 07:31:03;;;;;;;10.05;4.25;;;27.80;77.10;;;;;;5086856;28;20040;-47
2022/03/04 07:33:30;;;;;;;7.88;3.90;;;27.80;77.10;;;;;;5086420;28;20036;-47
2022/03/04 07:35:56;;;;;;;7.03;4.10;;;27.80;76.90;;;;;;5086665;28;20024;-46
2022/03/04 07:38:23;;;;;;;6.47;3.97;;;27.80;76.90;;;;;;5086469;28;20051;-43
2022/03/04 07:40:50;;;;;;;7.57;4.05;;;27.80;76.90;;;;;;5086572;28;20097;-43
2022/03/04 07:43:16;;;;;;;6.50;3.67;;;27.70;77.10;;;;;;5086257;28;20093;-40
2022/03/04 07:45:43;;;;;;;5.32;3.88;;;27.70;76.80;;;;;;5086449;28;20036;-40
2022/03/04 07:48:09;;;;;;;5.75;3.55;;;27.70;77.00;;;;;;5086131;28;20052;-43
2022/03/04 07:50:36;;;;;;;9.45;4.10;;;27.70;77.10;;;;;;5086306;28;20208;-41
2022/03/04 07:53:03;;;;;;;8.45;4.03;;;27.70;77.30;;;;;;5086467;28;20051;-40
2022/03/04 07:55:29;;;;;;;7.68;4.22;;;27.70;77.40;;;;;;5086243;28;20042;-41
2022/03/04 07:57:56;;;;;;;10.63;4.47;;;27.80;77.50;;;;;;5085925;28;20028;-40
2022/03/04 08:00:26;;;;;;;10.45;4.00;;;27.80;77.60;;;;;;5085926;28;20297;-41
2022/03/04 08:02:54;;;;;;;8.90;4.10;;;27.80;77.50;;;;;;5085804;28;20032;-40
2022/03/04 08:05:21;;;;;;;7.50;4.32;;;27.70;77.70;;;;;;5085995;28;20040;-40
2022/03/04 08:07:48;;;;;;;9.25;4.40;;;27.80;77.70;;;;;;5085673;28;20250;-40
2022/03/04 08:10:15;;;;;;;10.25;4.10;;;27.70;77.40;;;;;;5085846;28;20024;-41
2022/03/04 08:12:42;;;;;;;8.38;3.90;;;27.70;77.10;;;;;;5085802;28;20009;-42
2022/03/04 08:15:11;;;;;;;7.00;4.20;;;27.80;77.50;;;;;;5085639;28;20104;-41
2022/03/04 08:17:41;;;;;;;4.82;3.72;;;27.80;77.30;;;;;;5085554;28;20021;-41
2022/03/04 08:20:09;;;;;;;7.28;3.88;;;27.80;77.50;;;;;;5085535;28;20047;-42
2022/03/04 08:22:35;;;;;;;7.75;4.15;;;27.80;77.40;;;;;;5085584;28;20278;-41
2022/03/04 08:25:03;;;;;;;9.50;4.20;;;27.70;77.30;;;;;;5085406;28;20047;-42
2022/03/04 08:27:29;;;;;;;7.75;4.00;;;27.70;77.10;;;;;;5085338;28;20043;-41
2022/03/04 08:29:56;;;;;;;5.75;4.13;;;27.70;77.00;;;;;;5085513;28;20028;-40
2022/03/04 08:32:23;;;;;;;7.95;4.18;;;27.70;77.00;;;;;;5085354;28;20028;-41
2022/03/04 08:34:50;;;;;;;8.73;4.30;;;27.70;77.10;;;;;;5084613;28;20033;-42
2022/03/04 08:37:17;;;;;;;10.88;4.78;;;27.70;77.20;;;;;;5085153;28;20021;-41
2022/03/04 08:39:43;;;;;;;7.80;4.07;;;27.70;77.20;;;;;;5085171;28;20032;-44
2022/03/04 08:42:10;;;;;;;7.25;4.18;;;27.70;77.10;;;;;;5085242;28;20028;-41
2022/03/04 08:44:36;;;;;;;6.82;3.95;;;27.70;77.00;;;;;;5085130;28;20036;-41
2022/03/04 08:47:03;;;;;;;8.70;4.00;;;27.70;77.00;;;;;;5084936;28;20028;-41
2022/03/04 08:49:30;;;;;;;5.30;3.80;;;27.70;76.60;;;;;;5085027;28;20024;-40
2022/03/04 08:51:56;;;;;;;6.45;3.83;;;27.70;76.40;;;;;;5084726;28;20050;-42
2022/03/04 08:54:23;;;;;;;7.00;3.83;;;27.70;76.40;;;;;;5084826;28;20016;-44
2022/03/04 08:56:50;;;;;;;6.25;3.90;;;27.70;76.30;;;;;;5084748;28;20034;-43
2022/03/04 08:59:17;;;;;;;6.45;3.95;;;27.70;76.20;;;;;;5084512;28;20028;-41
2022/03/04 09:01:43;;;;;;;7.82;3.60;;;27.70;75.90;;;;;;5084638;28;20021;-42
2022/03/04 09:04:14;;;;;;;6.38;3.70;;;27.70;75.60;;;;;;5084532;28;20099;-42
2022/03/04 09:06:44;;;;;;;6.75;3.40;;;27.70;75.50;;;;;;5084283;28;20032;-40
2022/03/04 09:09:11;;;;;;;9.05;3.33;;;27.70;75.70;;;;;;5084394;28;20028;-41
2022/03/04 09:11:37;;;;;;;7.75;3.78;;;27.70;75.30;;;;;;5084484;28;20024;-41
2022/03/04 09:14:04;;;;;;;9.73;3.42;;;27.70;75.10;;;;;;5084349;28;20243;-40
2022/03/04 09:16:30;;;;;;;8.25;3.90;;;27.70;74.90;;;;;;5084955;28;20229;-40
2022/03/04 09:18:57;;;;;;;6.18;3.50;;;27.70;75.00;;;;;;5084420;28;20023;-43
2022/03/04 09:21:24;;;;;;;9.60;3.97;;;27.60;74.90;;;;;;5084598;28;20056;-41
2022/03/04 09:23:50;;;;;;;6.75;3.20;;;27.70;74.90;;;;;;5084278;28;20040;-43
2022/03/04 09:26:17;;;;;;;5.43;3.85;;;27.70;74.90;;;;;;5084181;28;20080;-40
2022/03/04 09:28:44;;;;;;;6.70;3.92;;;27.70;75.50;;;;;;5084054;28;20024;-42
2022/03/04 09:31:10;;;;;;;8.27;3.53;;;27.70;75.50;;;;;;5084601;28;20324;-41
2022/03/04 09:33:37;;;;;;;8.27;3.75;;;27.70;75.60;;;;;;5084079;28;20087;-40
2022/03/04 09:36:05;;;;;;;6.53;4.20;;;27.60;75.90;;;;;;5084428;28;20031;-46
2022/03/04 09:38:33;;;;;;;9.65;4.40;;;27.60;76.20;;;;;;5084080;28;20027;-43
2022/03/04 09:41:00;;;;;;;6.60;4.10;;;27.60;76.50;;;;;;5084360;28;20074;-41
2022/03/04 09:43:27;;;;;;;6.95;3.90;;;27.60;76.70;;;;;;5084133;28;20201;-41
2022/03/04 09:45:53;;;;;;;7.03;4.10;;;27.70;77.20;;;;;;5084325;28;20086;-44
2022/03/04 09:48:20;;;;;;;10.38;4.50;;;27.60;77.30;;;;;;5083862;28;20258;-44
2022/03/04 09:50:48;;;;;;;7.47;3.90;;;27.60;77.60;;;;;;5084227;28;20028;-42
2022/03/04 09:53:15;;;;;;;8.27;4.63;;;27.60;78.00;;;;;;5083982;28;20024;-42
2022/03/04 09:55:43;;;;;;;7.68;4.43;;;27.60;78.10;;;;;;5084325;28;20044;-40
2022/03/04 09:58:11;;;;;;;8.13;4.13;;;27.60;78.40;;;;;;5083724;28;20036;-45
2022/03/04 10:00:39;;;;;;;7.85;4.25;;;27.60;78.50;;;;;;5084086;28;20358;-40
2022/03/04 10:03:11;;;;;;;8.70;4.13;;;27.50;78.60;;;;;;5083857;28;20066;-42
2022/03/04 10:05:54;;;;;;;7.45;4.10;;;27.50;78.90;;;;;;5083889;28;20111;-40
2022/03/04 10:08:22;;;;;;;10.65;4.10;;;27.50;79.10;;;;;;5083753;28;20027;-45
2022/03/04 10:10:58;;;;;;;10.90;4.25;;;27.50;79.30;;;;;;5083941;28;20032;-40
2022/03/04 10:13:51;;;;;;;6.20;4.25;;;27.50;79.30;;;;;;5082606;28;20261;-40
2022/03/04 10:16:27;;;;;;;7.65;4.60;;;27.50;79.60;;;;;;5084207;28;20070;-41
2022/03/04 10:19:13;;;;;;;9.48;4.43;;;27.40;79.70;;;;;;5083660;28;20312;-43
2022/03/04 10:21:56;;;;;;;6.93;4.05;;;27.50;79.90;;;;;;5083616;28;20078;-41
2022/03/04 10:24:32;;;;;;;7.88;4.20;;;27.40;80.20;;;;;;5083447;28;20017;-41
2022/03/04 10:27:07;;;;;;;8.90;4.20;;;27.40;80.30;;;;;;5083308;28;20213;-41
2022/03/04 10:29:41;;;;;;;7.35;4.45;;;27.40;80.40;;;;;;5083689;28;20023;-41
2022/03/04 10:32:18;;;;;;;7.03;4.22;;;27.40;80.10;;;;;;5083529;28;20035;-41
2022/03/04 10:35:09;;;;;;;6.72;4.38;;;27.40;80.00;;;;;;5083582;28;20021;-42
2022/03/04 10:37:46;;;;;;;8.40;4.43;;;27.30;79.90;;;;;;5083559;28;20031;-41
2022/03/04 10:40:18;;;;;;;5.85;4.13;;;27.30;80.00;;;;;;5083511;28;20024;-44
2022/03/04 10:42:59;;;;;;;9.38;4.40;;;27.30;80.10;;;;;;5083530;28;20321;-41
2022/03/04 10:45:26;;;;;;;7.82;4.65;;;27.30;80.00;;;;;;5083406;28;20039;-42
2022/03/04 10:47:55;;;;;;;5.85;4.40;;;27.20;79.90;;;;;;5083314;28;20036;-41
2022/03/04 10:50:34;;;;;;;6.53;3.75;;;27.20;80.40;;;;;;5083538;28;20100;-45
2022/03/04 10:53:05;;;;;;;7.65;4.22;;;27.20;80.10;;;;;;5083209;28;20339;-42
2022/03/04 10:55:39;;;;;;;6.88;4.18;;;27.20;80.20;;;;;;5083577;28;20293;-42
2022/03/04 10:58:12;;;;;;;6.43;4.28;;;27.20;80.20;;;;;;5086149;28;20200;-43
2022/03/04 11:00:41;;;;;;;7.22;3.97;;;27.20;80.30;;;;;;5087176;28;20033;-44
2022/03/04 11:03:08;;;;;;;6.97;4.20;;;27.20;80.10;;;;;;5087100;28;20307;-42
2022/03/04 11:05:34;;;;;;;6.38;3.97;;;27.20;80.20;;;;;;5087006;28;20066;-44
2022/03/04 11:08:01;;;;;;;10.73;4.40;;;27.20;80.40;;;;;;5086700;28;20042;-40
2022/03/04 11:10:28;;;;;;;5.97;3.58;;;27.10;80.60;;;;;;5087119;28;20029;-41
2022/03/04 11:12:55;;;;;;;6.00;3.78;;;27.20;80.20;;;;;;5086590;28;20063;-42
2022/03/04 11:15:23;;;;;;;6.20;3.97;;;27.20;80.50;;;;;;5086990;28;20075;-41
2022/03/04 11:17:51;;;;;;;6.63;4.20;;;27.10;80.40;;;;;;5086749;28;20074;-40
2022/03/04 11:20:19;;;;;;;5.72;3.72;;;27.10;80.70;;;;;;5086759;28;20048;-41
2022/03/04 11:22:49;;;;;;;4.57;3.83;;;27.10;80.80;;;;;;5086808;28;20029;-40
2022/03/04 11:25:17;;;;;;;9.38;4.70;;;27.20;80.80;;;;;;5086532;28;20028;-41
2022/03/04 11:27:45;;;;;;;5.03;4.47;;;27.20;80.30;;;;;;5086204;28;20043;-42
2022/03/04 11:30:30;;;;;;;6.47;4.13;;;27.20;80.60;;;;;;5086558;28;20031;-47
2022/03/04 11:33:27;;;;;;;9.20;4.30;;;27.20;80.50;;;;;;5086218;28;20032;-47
2022/03/04 11:35:58;;;;;;;6.45;3.97;;;27.20;80.40;;;;;;5080671;28;20060;-44
2022/03/04 11:38:46;;;;;;;6.78;4.15;;;27.20;80.10;;;;;;5086309;28;20134;-42
2022/03/04 11:41:26;;;;;;;6.43;4.03;;;27.20;80.10;;;;;;5086657;28;20054;-48
2022/03/04 11:44:22;;;;;;;6.53;4.18;;;27.20;80.20;;;;;;5086137;28;20352;-46
2022/03/04 11:47:04;;;;;;;6.78;4.10;;;27.30;80.20;;;;;;5099985;28;20281;-41
2022/03/04 11:49:49;;;;;;;4.63;3.90;;;27.30;79.60;;;;;;5106268;28;20054;-47
2022/03/04 11:52:24;;;;;;;5.88;3.60;;;27.30;80.40;;;;;;5106381;28;20024;-42
2022/03/04 11:54:53;;;;;;;5.00;3.80;;;27.30;79.70;;;;;;5106140;28;20074;-46
2022/03/04 11:57:21;;;;;;;6.35;3.60;;;27.30;79.60;;;;;;5106114;28;20031;-41
2022/03/04 11:59:54;;;;;;;5.90;4.10;;;27.30;78.00;;;;;;5106335;28;20028;-41
2022/03/04 12:02:25;;;;;;;4.93;3.55;;;27.30;78.50;;;;;;5105966;28;20032;-41
2022/03/04 12:05:21;;;;;;;8.13;3.83;;;27.30;78.90;;;;;;5106036;28;20317;-41
2022/03/04 12:07:57;;;;;;;5.05;3.40;;;27.30;78.90;;;;;;5105191;28;20243;-41
2022/03/04 12:10:30;;;;;;;6.15;3.65;;;27.30;78.70;;;;;;5106106;28;20045;-41
2022/03/04 12:13:00;;;;;;;8.32;3.78;;;27.30;78.50;;;;;;5105693;28;20039;-47
2022/03/04 12:15:26;;;;;;;4.22;3.63;;;27.30;78.40;;;;;;5106205;28;20354;-44
2022/03/04 12:17:59;;;;;;;5.65;3.50;;;27.30;78.40;;;;;;5105794;28;20059;-43
2022/03/04 12:20:41;;;;;;;8.50;4.28;;;27.30;78.60;;;;;;5105859;28;20027;-41
2022/03/04 12:23:11;;;;;;;6.50;4.00;;;27.30;79.30;;;;;;5105608;28;20198;-41
2022/03/04 12:25:56;;;;;;;6.30;3.55;;;27.30;79.20;;;;;;5105699;28;20470;-42
2022/03/04 12:28:35;;;;;;;17.00;8.23;;;27.40;79.30;;;;;;5105420;28;20105;-36
2022/03/04 12:31:02;;;;;;;11.90;6.22;;;27.40;79.40;;;;;;5105774;28;20043;-38
2022/03/04 12:33:37;;;;;;;10.75;5.97;;;27.40;79.50;;;;;;5105366;28;20051;-38
2022/03/04 12:36:07;;;;;;;8.38;5.28;;;27.40;79.60;;;;;;5105629;28;20058;-38
2022/03/04 12:38:47;;;;;;;8.25;5.22;;;27.40;79.70;;;;;;5087194;28;20046;-37
2022/03/04 12:41:17;;;;;;;6.85;4.88;;;27.40;80.00;;;;;;5105648;28;20018;-39
2022/03/04 12:43:58;;;;;;;7.95;5.18;;;27.50;79.10;;;;;;5105196;28;20036;-40
2022/03/04 12:46:30;;;;;;;8.32;4.78;;;27.50;79.50;;;;;;5105530;28;20023;-46
2022/03/04 12:48:57;;;;;;;11.07;4.43;;;27.50;79.50;;;;;;5105008;28;20032;-44
2022/03/04 12:51:32;;;;;;;8.27;4.25;;;27.50;79.50;;;;;;5105642;28;20020;-44
2022/03/04 12:54:08;;;;;;;4.80;3.90;;;27.50;78.90;;;;;;5104879;28;20104;-42